createdAt,value
2018-11-29T00:00:31.796Z,-0.50
2018-11-29T00:03:00.435Z,-0.50
2018-11-29T00:05:28.960Z,-0.40
2018-11-29T00:07:57.478Z,-0.50
2018-11-29T00:10:26.069Z,-0.50
2018-11-29T00:12:54.615Z,-0.40
2018-11-29T00:15:23.164Z,-0.40
2018-11-29T00:17:51.814Z,-0.50
2018-11-29T00:20:20.947Z,-0.50
2018-11-29T00:22:50.506Z,-0.50
2018-11-29T00:25:19.651Z,-0.40
2018-11-29T00:27:48.618Z,-0.40
2018-11-29T00:30:21.164Z,-0.40
2018-11-29T00:32:50.544Z,-0.40
2018-11-29T00:35:19.093Z,-0.40
2018-11-29T00:37:47.699Z,-0.40
2018-11-29T00:40:24.813Z,-0.40
2018-11-29T00:42:53.488Z,-0.30
2018-11-29T00:45:22.925Z,-0.40
2018-11-29T00:47:51.762Z,-0.40
2018-11-29T00:50:21.205Z,-0.40
2018-11-29T00:52:50.502Z,-0.40
2018-11-29T00:55:21.146Z,-0.40
2018-11-29T00:57:49.858Z,-0.50
2018-11-29T01:00:20.317Z,-0.50
2018-11-29T01:02:49.034Z,-0.40
2018-11-29T01:05:17.656Z,-0.40
2018-11-29T01:07:46.212Z,-0.50
2018-11-29T01:10:15.600Z,-0.50
2018-11-29T01:12:44.599Z,-0.40
2018-11-29T01:15:14.050Z,-0.40
2018-11-29T01:17:42.745Z,-0.40
2018-11-29T01:20:13.030Z,-0.30
2018-11-29T01:22:41.569Z,-0.30
2018-11-29T01:25:12.260Z,-0.30
2018-11-29T01:27:41.280Z,-0.30
2018-11-29T01:30:20.330Z,-0.30
2018-11-29T01:32:49.048Z,-0.30
2018-11-29T01:35:19.526Z,-0.30
2018-11-29T01:37:48.366Z,-0.30
2018-11-29T01:40:19.929Z,-0.20
2018-11-29T01:42:51.696Z,-0.30
2018-11-29T01:45:20.330Z,-0.30
2018-11-29T01:47:48.940Z,-0.30
2018-11-29T01:50:17.532Z,-0.30
2018-11-29T01:52:46.062Z,-0.30
2018-11-29T01:55:14.848Z,-0.30
2018-11-29T01:57:43.362Z,-0.20
2018-11-29T02:00:15.380Z,-0.30
2018-11-29T02:02:46.407Z,-0.20
2018-11-29T02:05:15.472Z,-0.20
2018-11-29T02:07:44.752Z,-0.20
2018-11-29T02:10:20.001Z,-0.20
2018-11-29T02:12:49.191Z,-0.20
2018-11-29T02:15:18.656Z,-0.20
2018-11-29T02:17:47.800Z,-0.10
2018-11-29T02:20:19.734Z,-0.10
2018-11-29T02:22:51.255Z,-0.10
2018-11-29T02:25:23.056Z,0.00
2018-11-29T02:27:53.347Z,0.00
2018-11-29T02:30:24.243Z,0.00
2018-11-29T02:32:56.103Z,0.10
2018-11-29T02:35:25.853Z,0.10
2018-11-29T02:37:56.687Z,0.10
2018-11-29T02:40:27.959Z,0.00
2018-11-29T02:42:56.962Z,0.00
2018-11-29T02:45:27.620Z,0.00
2018-11-29T02:47:59.919Z,0.00
2018-11-29T02:50:29.653Z,0.10
2018-11-29T02:52:59.887Z,0.10
2018-11-29T02:55:29.775Z,0.10
2018-11-29T02:57:59.515Z,0.00
2018-11-29T03:00:29.358Z,0.00
2018-11-29T03:02:59.055Z,0.00
2018-11-29T03:05:28.702Z,0.10
2018-11-29T03:07:59.439Z,0.20
2018-11-29T03:10:35.224Z,0.30
2018-11-29T03:13:04.367Z,0.30
2018-11-29T03:15:34.895Z,0.30
2018-11-29T03:18:04.455Z,0.30
2018-11-29T03:20:34.109Z,0.40
2018-11-29T03:23:03.857Z,0.40
2018-11-29T03:25:34.622Z,0.40
2018-11-29T03:28:06.281Z,0.50
2018-11-29T03:30:38.640Z,0.50
2018-11-29T03:33:12.238Z,0.60
2018-11-29T03:35:44.863Z,0.60
2018-11-29T03:38:20.750Z,0.50
2018-11-29T03:40:54.991Z,0.50
2018-11-29T03:43:31.854Z,0.50
2018-11-29T03:46:02.983Z,0.50
2018-11-29T03:48:34.385Z,0.50
2018-11-29T03:51:04.340Z,0.50
2018-11-29T03:53:41.483Z,0.60
2018-11-29T03:56:20.076Z,0.60
2018-11-29T03:58:50.695Z,0.60
2018-11-29T04:01:24.429Z,0.60
2018-11-29T04:03:56.127Z,0.70
2018-11-29T04:06:27.358Z,0.60
2018-11-29T04:08:59.417Z,0.70
2018-11-29T04:11:29.167Z,0.80
2018-11-29T04:13:59.670Z,0.80
2018-11-29T04:16:29.548Z,0.80
2018-11-29T04:19:01.306Z,0.80
2018-11-29T04:21:33.091Z,0.80
2018-11-29T04:24:09.510Z,0.90
2018-11-29T04:26:44.009Z,0.80
2018-11-29T04:29:20.601Z,0.80
2018-11-29T04:31:52.582Z,0.80
2018-11-29T04:34:28.284Z,0.90
2018-11-29T04:37:00.426Z,1.00
2018-11-29T04:39:29.888Z,1.00
2018-11-29T04:42:06.302Z,1.00
2018-11-29T04:44:39.718Z,0.90
2018-11-29T04:47:08.613Z,0.90
2018-11-29T04:49:37.129Z,0.90
2018-11-29T04:52:06.146Z,1.00
2018-11-29T04:54:34.637Z,0.90
2018-11-29T04:57:03.223Z,0.80
2018-11-29T04:59:31.782Z,0.80
2018-11-29T05:02:00.322Z,0.80
2018-11-29T05:04:28.832Z,0.80
2018-11-29T05:06:57.339Z,0.80
2018-11-29T05:09:25.837Z,0.80
2018-11-29T05:11:54.331Z,0.80
2018-11-29T05:14:22.841Z,0.90
2018-11-29T05:16:51.358Z,0.90
2018-11-29T05:19:19.904Z,0.90
2018-11-29T05:21:48.409Z,1.00
2018-11-29T05:24:16.886Z,1.00
2018-11-29T05:26:45.359Z,1.00
2018-11-29T05:29:13.858Z,1.10
2018-11-29T05:31:42.330Z,1.00
2018-11-29T05:34:10.861Z,1.00
2018-11-29T05:36:39.357Z,1.10
2018-11-29T05:39:08.033Z,1.10
2018-11-29T05:41:36.497Z,1.10
2018-11-29T05:44:05.248Z,1.10
2018-11-29T05:46:34.677Z,1.10
2018-11-29T05:49:03.396Z,1.10
2018-11-29T05:51:32.093Z,1.20
2018-11-29T05:54:00.635Z,1.20
2018-11-29T05:56:29.141Z,1.20
2018-11-29T05:58:57.791Z,1.20
2018-11-29T06:01:32.994Z,1.20
2018-11-29T06:04:01.562Z,1.20
2018-11-29T06:06:30.157Z,1.20
2018-11-29T06:08:58.679Z,1.30
2018-11-29T06:11:27.174Z,1.30
2018-11-29T06:13:55.674Z,1.30
2018-11-29T06:16:24.161Z,1.40
2018-11-29T06:18:52.985Z,1.40
2018-11-29T06:21:21.551Z,1.30
2018-11-29T06:23:50.095Z,1.30
2018-11-29T06:26:18.631Z,1.30
2018-11-29T06:28:47.181Z,1.40
2018-11-29T06:31:15.722Z,1.30
2018-11-29T06:33:44.342Z,1.30
2018-11-29T06:36:13.022Z,1.30
2018-11-29T06:38:41.557Z,1.20
2018-11-29T06:41:10.125Z,1.30
2018-11-29T06:43:38.639Z,1.40
2018-11-29T06:46:07.356Z,1.40
2018-11-29T06:48:35.890Z,1.40
2018-11-29T06:51:04.499Z,1.50
2018-11-29T06:53:38.414Z,1.60
2018-11-29T06:56:06.960Z,1.60
2018-11-29T06:58:35.468Z,1.70
2018-11-29T07:01:03.973Z,1.60
2018-11-29T07:03:32.515Z,1.70
2018-11-29T07:06:01.062Z,1.70
2018-11-29T07:08:29.593Z,1.70
2018-11-29T07:10:58.113Z,1.80
2018-11-29T07:13:26.623Z,1.90
2018-11-29T07:15:55.165Z,1.90
2018-11-29T07:18:23.702Z,1.90
2018-11-29T07:21:03.381Z,2.00
2018-11-29T07:23:31.910Z,2.10
2018-11-29T07:26:00.470Z,2.10
2018-11-29T07:28:29.024Z,2.10
2018-11-29T07:30:57.546Z,2.10
2018-11-29T07:33:27.078Z,2.10
2018-11-29T07:35:55.598Z,2.20
2018-11-29T07:38:24.114Z,2.10
2018-11-29T07:40:52.724Z,2.20
2018-11-29T07:43:21.280Z,2.30
2018-11-29T07:45:49.792Z,2.30
2018-11-29T07:48:18.342Z,2.30
2018-11-29T07:50:46.901Z,2.30
2018-11-29T07:53:16.309Z,2.30
2018-11-29T07:55:43.968Z,2.30
2018-11-29T07:58:12.480Z,2.40
2018-11-29T08:00:41.010Z,2.40
2018-11-29T08:03:09.505Z,2.60
2018-11-29T08:05:38.105Z,2.60
2018-11-29T08:08:06.640Z,2.70
2018-11-29T08:10:35.145Z,2.80
2018-11-29T08:13:03.799Z,2.90
2018-11-29T08:15:33.153Z,2.90
2018-11-29T08:18:01.644Z,3.00
2018-11-29T08:20:30.215Z,3.00
2018-11-29T08:22:58.724Z,3.00
2018-11-29T08:25:27.214Z,3.20
2018-11-29T08:27:55.789Z,3.30
2018-11-29T08:30:24.333Z,3.40
2018-11-29T08:32:53.582Z,3.50
2018-11-29T08:35:22.125Z,3.50
2018-11-29T08:37:50.647Z,3.40
2018-11-29T08:40:20.819Z,3.50
2018-11-29T08:42:49.446Z,3.60
2018-11-29T08:45:18.000Z,3.70
2018-11-29T08:47:46.646Z,3.70
2018-11-29T08:50:15.918Z,3.90
2018-11-29T08:52:45.438Z,3.80
2018-11-29T08:55:16.143Z,3.90
2018-11-29T08:57:45.081Z,3.90
2018-11-29T09:00:16.437Z,3.90
2018-11-29T09:02:45.115Z,3.90
2018-11-29T09:05:14.374Z,4.00
2018-11-29T09:07:43.850Z,3.90
2018-11-29T09:10:16.613Z,4.00
2018-11-29T09:12:45.096Z,3.90
2018-11-29T09:15:14.517Z,4.00
2018-11-29T09:17:43.241Z,3.90
2018-11-29T09:20:13.003Z,4.00
2018-11-29T09:22:41.708Z,4.00
2018-11-29T09:25:13.489Z,4.00
2018-11-29T09:27:42.022Z,4.10
2018-11-29T09:30:16.998Z,4.20
2018-11-29T09:32:46.947Z,4.40
2018-11-29T09:35:15.597Z,4.50
2018-11-29T09:37:44.130Z,4.40
2018-11-29T09:40:14.813Z,4.60
2018-11-29T09:42:43.494Z,4.60
2018-11-29T09:45:15.089Z,4.70
2018-11-29T09:47:44.445Z,4.90
2018-11-29T09:50:13.953Z,4.90
2018-11-29T09:52:42.558Z,4.80
2018-11-29T09:55:12.200Z,4.80
2018-11-29T09:57:40.934Z,4.90
2018-11-29T10:00:27.167Z,4.80
2018-11-29T10:02:53.431Z,4.70
2018-11-29T10:05:21.973Z,4.70
2018-11-29T10:07:50.505Z,4.70
2018-11-29T10:10:19.055Z,4.60
2018-11-29T10:12:47.601Z,4.60
2018-11-29T10:15:16.156Z,4.50
2018-11-29T10:17:44.698Z,4.50
2018-11-29T10:20:13.577Z,4.70
2018-11-29T10:22:42.854Z,4.70
2018-11-29T10:25:12.988Z,4.80
2018-11-29T10:27:43.396Z,4.90
2018-11-29T10:30:18.605Z,4.80
2018-11-29T10:32:47.155Z,4.90
2018-11-29T10:35:15.708Z,5.10
2018-11-29T10:37:44.461Z,5.10
2018-11-29T10:40:13.090Z,5.30
2018-11-29T10:42:41.626Z,5.30
2018-11-29T10:45:15.323Z,5.20
2018-11-29T10:47:49.344Z,5.40
2018-11-29T10:50:14.436Z,5.40
2018-11-29T10:52:43.105Z,5.50
2018-11-29T10:55:19.293Z,5.70
2018-11-29T10:57:47.967Z,5.70
2018-11-29T11:00:25.923Z,5.80
2018-11-29T11:03:01.223Z,5.90
2018-11-29T11:05:29.740Z,5.80
2018-11-29T11:07:58.279Z,5.90
2018-11-29T11:10:26.781Z,5.90
2018-11-29T11:12:55.310Z,5.90
2018-11-29T11:15:23.853Z,5.90
2018-11-29T11:17:52.441Z,6.00
2018-11-29T11:20:21.024Z,6.00
2018-11-29T11:22:50.148Z,6.00
2018-11-29T11:25:18.666Z,6.00
2018-11-29T11:27:47.262Z,6.00
2018-11-29T11:30:20.625Z,6.00
2018-11-29T11:32:51.933Z,6.10
2018-11-29T11:35:20.549Z,6.00
2018-11-29T11:37:49.105Z,6.10
2018-11-29T11:40:17.983Z,6.20
2018-11-29T11:42:47.139Z,6.30
2018-11-29T11:45:17.861Z,6.20
2018-11-29T11:47:46.555Z,6.20
2018-11-29T11:50:18.150Z,6.10
2018-11-29T11:52:46.864Z,6.20
2018-11-29T11:55:19.021Z,6.20
2018-11-29T11:57:44.639Z,6.30
2018-11-29T12:00:18.428Z,6.30
2018-11-29T12:02:47.709Z,6.20
2018-11-29T12:05:16.214Z,6.30
2018-11-29T12:07:44.801Z,6.50
2018-11-29T12:10:15.390Z,6.40
2018-11-29T12:12:43.881Z,6.40
2018-11-29T12:15:14.444Z,6.40
2018-11-29T12:17:44.074Z,6.40
2018-11-29T12:20:13.872Z,6.50
2018-11-29T12:22:42.376Z,6.50
2018-11-29T12:25:12.331Z,6.60
2018-11-29T12:27:40.836Z,6.60
2018-11-29T12:30:15.043Z,6.60
2018-11-29T12:32:43.609Z,6.60
2018-11-29T12:35:12.104Z,6.50
2018-11-29T12:37:40.673Z,6.40
2018-11-29T12:40:10.758Z,6.40
2018-11-29T12:42:39.366Z,6.50
2018-11-29T12:45:10.346Z,6.40
2018-11-29T12:47:40.195Z,6.30
2018-11-29T12:50:13.280Z,6.40
2018-11-29T12:52:41.884Z,6.40
2018-11-29T12:55:11.005Z,6.50
2018-11-29T12:57:39.560Z,6.50
2018-11-29T13:00:11.776Z,6.50
2018-11-29T13:02:43.857Z,6.60
2018-11-29T13:05:12.407Z,6.60
2018-11-29T13:07:43.345Z,6.60
2018-11-29T13:10:09.828Z,6.60
2018-11-29T13:12:38.337Z,6.60
2018-11-29T13:15:10.823Z,6.60
2018-11-29T13:17:39.293Z,6.50
2018-11-29T13:20:11.274Z,6.50
2018-11-29T13:22:39.862Z,6.50
2018-11-29T13:25:12.135Z,6.50
2018-11-29T13:27:41.247Z,6.50
2018-11-29T13:30:11.663Z,6.50
2018-11-29T13:32:40.861Z,6.50
2018-11-29T13:35:16.045Z,6.40
2018-11-29T13:37:53.014Z,6.50
2018-11-29T13:40:22.595Z,6.50
2018-11-29T13:42:51.445Z,6.60
2018-11-29T13:45:20.828Z,6.60
2018-11-29T13:47:49.696Z,6.50
2018-11-29T13:50:18.663Z,6.50
2018-11-29T13:52:48.937Z,6.50
2018-11-29T13:55:18.250Z,6.50
2018-11-29T13:57:54.020Z,6.40
2018-11-29T14:00:23.674Z,6.40
2018-11-29T14:02:53.626Z,6.40
2018-11-29T14:05:22.216Z,6.50
2018-11-29T14:07:50.761Z,6.40
2018-11-29T14:10:21.492Z,6.30
2018-11-29T14:12:52.010Z,6.30
2018-11-29T14:15:22.056Z,6.30
2018-11-29T14:17:51.759Z,6.10
2018-11-29T14:20:20.455Z,6.10
2018-11-29T14:22:55.627Z,6.10
2018-11-29T14:25:24.162Z,6.10
2018-11-29T14:27:54.390Z,6.10
2018-11-29T14:30:27.037Z,6.10
2018-11-29T14:32:56.763Z,6.00
2018-11-29T14:35:25.344Z,6.00
2018-11-29T14:37:53.864Z,5.90
2018-11-29T14:40:23.294Z,5.90
2018-11-29T14:42:52.144Z,5.90
2018-11-29T14:45:23.188Z,5.80
2018-11-29T14:47:51.829Z,5.80
2018-11-29T14:50:26.696Z,5.80
2018-11-29T14:52:58.319Z,5.80
2018-11-29T14:55:28.018Z,5.70
2018-11-29T14:57:56.687Z,5.70
2018-11-29T15:00:25.250Z,5.60
2018-11-29T15:02:54.254Z,5.60
2018-11-29T15:05:24.403Z,5.50
2018-11-29T15:07:52.906Z,5.60
2018-11-29T15:10:21.462Z,5.50
2018-11-29T15:12:49.930Z,5.50
2018-11-29T15:15:18.466Z,5.50
2018-11-29T15:17:47.813Z,5.50
2018-11-29T15:20:19.585Z,5.50
2018-11-29T15:22:48.294Z,5.60
2018-11-29T15:25:16.773Z,5.60
2018-11-29T15:27:45.285Z,5.60
2018-11-29T15:30:21.639Z,5.60
2018-11-29T15:32:50.245Z,5.50
2018-11-29T15:35:19.001Z,5.50
2018-11-29T15:37:47.555Z,5.50
2018-11-29T15:40:16.893Z,5.50
2018-11-29T15:42:45.613Z,5.50
2018-11-29T15:45:19.463Z,5.50
2018-11-29T15:47:48.066Z,5.50
2018-11-29T15:50:17.106Z,5.50
2018-11-29T15:52:45.781Z,5.50
2018-11-29T15:55:18.177Z,5.50
2018-11-29T15:57:47.697Z,5.50
2018-11-29T16:00:27.180Z,5.40
2018-11-29T16:02:57.041Z,5.40
2018-11-29T16:05:25.689Z,5.40
2018-11-29T16:07:54.289Z,5.40
2018-11-29T16:10:23.886Z,5.40
2018-11-29T16:12:52.375Z,5.40
2018-11-29T16:15:21.261Z,5.30
2018-11-29T16:17:50.758Z,5.30
2018-11-29T16:20:24.494Z,5.30
2018-11-29T16:22:53.717Z,5.20
2018-11-29T16:25:22.258Z,5.20
2018-11-29T16:27:51.775Z,5.00
2018-11-29T16:30:37.140Z,5.00
2018-11-29T16:33:08.917Z,5.00
2018-11-29T16:35:37.547Z,4.90
2018-11-29T16:38:06.997Z,4.90
2018-11-29T16:40:36.189Z,4.90
2018-11-29T16:43:04.807Z,4.90
2018-11-29T16:45:33.391Z,4.80
2018-11-29T16:48:01.885Z,4.80
2018-11-29T16:50:30.486Z,4.80
2018-11-29T16:52:59.191Z,4.80
2018-11-29T16:55:27.705Z,4.70
2018-11-29T16:57:59.590Z,4.70
2018-11-29T17:00:28.132Z,4.70
2018-11-29T17:02:56.685Z,4.60
2018-11-29T17:05:31.937Z,4.60
2018-11-29T17:10:53.444Z,4.50
2018-11-29T17:13:22.660Z,4.50
2018-11-29T17:15:51.239Z,4.50
2018-11-29T17:18:19.772Z,4.50
2018-11-29T17:20:48.583Z,4.50
2018-11-29T17:23:17.190Z,4.40
2018-11-29T17:25:46.065Z,4.40
2018-11-29T17:28:14.672Z,4.40
2018-11-29T17:30:43.501Z,4.40
2018-11-29T17:33:12.176Z,4.30
2018-11-29T17:35:40.838Z,4.30
2018-11-29T17:38:09.486Z,4.40
2018-11-29T17:40:38.911Z,4.40
2018-11-29T17:43:08.413Z,4.30
2018-11-29T17:48:19.022Z,4.30
2018-11-29T17:50:47.512Z,4.30
2018-11-29T17:53:16.024Z,4.20
2018-11-29T17:55:44.785Z,4.20
2018-11-29T17:58:15.571Z,4.30
2018-11-29T18:00:45.810Z,4.40
2018-11-29T18:03:16.764Z,4.30
2018-11-29T18:05:45.310Z,4.30
2018-11-29T18:08:13.948Z,4.30
2018-11-29T18:10:43.034Z,4.30
2018-11-29T18:13:16.000Z,4.20
2018-11-29T18:15:44.720Z,4.30
2018-11-29T18:18:13.336Z,4.20
2018-11-29T18:20:41.907Z,4.10
2018-11-29T18:23:11.122Z,4.20
2018-11-29T18:25:39.984Z,4.30
2018-11-29T18:28:09.141Z,4.30
2018-11-29T18:30:37.861Z,4.30
2018-11-29T18:33:07.149Z,4.20
2018-11-29T18:35:36.696Z,4.30
2018-11-29T18:38:06.580Z,4.30
2018-11-29T18:40:35.992Z,4.30
2018-11-29T18:43:05.284Z,4.30
2018-11-29T18:45:33.934Z,4.20
2018-11-29T18:48:02.557Z,4.20
2018-11-29T18:50:31.818Z,4.30
2018-11-29T18:53:00.491Z,4.30
2018-11-29T18:55:29.152Z,4.30
2018-11-29T18:58:01.013Z,4.40
2018-11-29T19:00:32.022Z,4.40
2018-11-29T19:03:00.642Z,4.40
2018-11-29T19:05:29.320Z,4.40
2018-11-29T19:07:58.126Z,4.40
2018-11-29T19:10:26.893Z,4.30
2018-11-29T19:12:58.925Z,4.30
2018-11-29T19:15:27.749Z,4.30
2018-11-29T19:17:56.503Z,4.30
2018-11-29T19:20:32.943Z,4.40
2018-11-29T19:23:02.144Z,4.40
2018-11-29T19:25:30.805Z,4.40
2018-11-29T19:27:59.528Z,4.40
2018-11-29T19:30:29.337Z,4.30
2018-11-29T19:33:04.051Z,4.40
2018-11-29T19:35:32.810Z,4.40
2018-11-29T19:38:01.430Z,4.40
2018-11-29T19:40:30.096Z,4.40
2018-11-29T19:42:59.470Z,4.40
2018-11-29T19:45:28.310Z,4.40
2018-11-29T19:47:57.123Z,4.50
2018-11-29T19:50:26.239Z,4.40
2018-11-29T19:52:56.777Z,4.30
2018-11-29T19:55:26.981Z,4.30
2018-11-29T19:57:56.742Z,4.30
2018-11-29T20:00:25.631Z,4.40
2018-11-29T20:02:55.744Z,4.40
2018-11-29T20:05:24.394Z,4.40
2018-11-29T20:07:53.074Z,4.40
2018-11-29T20:10:21.895Z,4.20
2018-11-29T20:13:00.924Z,4.30
2018-11-29T20:15:29.688Z,4.10
2018-11-29T20:17:58.408Z,4.10
2018-11-29T20:20:26.999Z,4.00
2018-11-29T20:22:56.337Z,4.00
2018-11-29T20:25:26.021Z,3.90
2018-11-29T20:28:00.922Z,3.80
2018-11-29T20:30:29.602Z,3.80
2018-11-29T20:32:58.186Z,3.80
2018-11-29T20:35:26.784Z,3.70
2018-11-29T20:37:55.467Z,3.80
2018-11-29T20:40:25.425Z,3.80
2018-11-29T20:42:56.235Z,3.70
2018-11-29T20:45:43.897Z,3.70
2018-11-29T20:48:18.819Z,3.60
2018-11-29T20:50:48.213Z,3.50
2018-11-29T20:53:20.930Z,3.50
2018-11-29T20:55:50.178Z,3.50
2018-11-29T20:58:18.783Z,3.50
2018-11-29T21:00:47.386Z,3.50
2018-11-29T21:03:16.056Z,3.50
2018-11-29T21:05:45.437Z,3.50
2018-11-29T21:08:14.419Z,3.60
2018-11-29T21:10:43.036Z,3.70
2018-11-29T21:13:11.682Z,3.80
2018-11-29T21:15:41.695Z,3.70
2018-11-29T21:18:11.859Z,3.70
2018-11-29T21:20:41.313Z,3.70
2018-11-29T21:23:13.998Z,3.60
2018-11-29T21:25:43.878Z,3.70
2018-11-29T21:28:12.462Z,3.90
2018-11-29T21:30:41.142Z,4.00
2018-11-29T21:33:10.159Z,4.00
2018-11-29T21:35:38.808Z,4.00
2018-11-29T21:38:15.014Z,4.10
2018-11-29T21:40:45.703Z,4.00
2018-11-29T21:43:14.266Z,4.00
2018-11-29T21:45:42.915Z,4.00
2018-11-29T21:48:12.262Z,4.00
2018-11-29T21:50:40.901Z,4.10
2018-11-29T21:53:09.442Z,4.00
2018-11-29T21:58:12.887Z,4.00
2018-11-29T22:00:41.490Z,4.10
2018-11-29T22:03:10.050Z,4.00
2018-11-29T22:05:38.598Z,4.10
2018-11-29T22:08:07.170Z,4.10
2018-11-29T22:10:35.690Z,4.10
2018-11-29T22:13:04.214Z,4.10
2018-11-29T22:15:32.790Z,4.10
2018-11-29T22:18:20.413Z,4.10
2018-11-29T22:20:52.116Z,4.20
2018-11-29T22:23:20.722Z,4.20
2018-11-29T22:25:49.314Z,4.20
2018-11-29T22:28:17.799Z,4.10
2018-11-29T22:30:46.302Z,4.10
2018-11-29T22:33:14.858Z,4.20
2018-11-29T22:35:43.362Z,4.30
2018-11-29T22:38:11.866Z,4.30
2018-11-29T22:40:40.569Z,4.30
2018-11-29T22:43:09.116Z,4.30
2018-11-29T22:45:37.752Z,4.30
2018-11-29T22:48:06.366Z,4.30
2018-11-29T22:50:34.875Z,4.30
2018-11-29T22:53:04.019Z,4.30
2018-11-29T22:55:32.628Z,4.40
2018-11-29T22:58:01.111Z,4.50
2018-11-29T23:00:34.858Z,4.40
2018-11-29T23:03:03.446Z,4.30
2018-11-29T23:05:31.940Z,4.30
2018-11-29T23:08:00.494Z,4.30
2018-11-29T23:10:29.026Z,4.40
2018-11-29T23:12:57.546Z,4.30
2018-11-29T23:15:26.119Z,4.30
2018-11-29T23:17:54.630Z,4.20
2018-11-29T23:20:23.165Z,4.10
2018-11-29T23:22:51.709Z,4.00
2018-11-29T23:25:20.215Z,4.00
2018-11-29T23:27:48.710Z,4.00
2018-11-29T23:30:17.769Z,3.90
2018-11-29T23:32:46.279Z,3.80
2018-11-29T23:35:15.433Z,3.80
2018-11-29T23:37:44.031Z,3.90
2018-11-29T23:40:16.882Z,3.80
2018-11-29T23:42:45.918Z,3.90
2018-11-29T23:45:14.656Z,3.80
2018-11-29T23:47:43.297Z,3.80
2018-11-29T23:50:15.339Z,3.70
2018-11-29T23:52:43.883Z,3.70
2018-11-29T23:55:14.828Z,3.60
2018-11-29T23:57:43.353Z,3.60
